sensor_id;sensor_type;location;lat;lon;timestamp;P1;durP1;ratioP1;P2;durP2;ratioP2
11809;SDS011;5962;41.566;23.734;2024-02-26T00:00:41;45.13;;;30.93;;
11809;SDS011;5962;41.566;23.734;2024-02-26T00:03:09;39.87;;;28.23;;
11809;SDS011;5962;41.566;23.734;2024-02-26T00:05:37;56.87;;;29.20;;
11809;SDS011;5962;41.566;23.734;2024-02-26T00:08:06;40.23;;;27.93;;
11809;SDS011;5962;41.566;23.734;2024-02-26T00:10:34;38.33;;;27.20;;
11809;SDS011;5962;41.566;23.734;2024-02-26T00:13:02;39.10;;;25.87;;
11809;SDS011;5962;41.566;23.734;2024-02-26T00:15:32;40.33;;;26.93;;
11809;SDS011;5962;41.566;23.734;2024-02-26T00:18:01;37.00;;;26.00;;
11809;SDS011;5962;41.566;23.734;2024-02-26T00:20:29;38.07;;;24.30;;
11809;SDS011;5962;41.566;23.734;2024-02-26T00:22:58;82.73;;;28.37;;
11809;SDS011;5962;41.566;23.734;2024-02-26T00:25:26;77.87;;;26.23;;
11809;SDS011;5962;41.566;23.734;2024-02-26T00:27:53;41.27;;;24.20;;
11809;SDS011;5962;41.566;23.734;2024-02-26T00:30:21;31.90;;;24.27;;
11809;SDS011;5962;41.566;23.734;2024-02-26T00:32:51;40.57;;;25.30;;
11809;SDS011;5962;41.566;23.734;2024-02-26T00:35:19;34.07;;;24.57;;
11809;SDS011;5962;41.566;23.734;2024-02-26T00:37:47;41.93;;;26.87;;
11809;SDS011;5962;41.566;23.734;2024-02-26T00:40:15;33.23;;;24.73;;
11809;SDS011;5962;41.566;23.734;2024-02-26T00:42:43;34.30;;;25.43;;
11809;SDS011;5962;41.566;23.734;2024-02-26T00:45:12;34.13;;;25.10;;
11809;SDS011;5962;41.566;23.734;2024-02-26T00:47:40;35.70;;;25.17;;
11809;SDS011;5962;41.566;23.734;2024-02-26T00:50:10;38.20;;;25.60;;
11809;SDS011;5962;41.566;23.734;2024-02-26T00:52:38;34.77;;;25.80;;
11809;SDS011;5962;41.566;23.734;2024-02-26T00:55:06;38.47;;;28.17;;
11809;SDS011;5962;41.566;23.734;2024-02-26T00:57:35;34.77;;;25.60;;
11809;SDS011;5962;41.566;23.734;2024-02-26T01:00:03;35.50;;;27.50;;
11809;SDS011;5962;41.566;23.734;2024-02-26T01:02:35;37.90;;;26.63;;
11809;SDS011;5962;41.566;23.734;2024-02-26T01:05:03;38.00;;;27.80;;
11809;SDS011;5962;41.566;23.734;2024-02-26T01:07:33;38.93;;;27.53;;
11809;SDS011;5962;41.566;23.734;2024-02-26T01:10:02;39.13;;;27.90;;
11809;SDS011;5962;41.566;23.734;2024-02-26T01:12:32;38.50;;;25.90;;
11809;SDS011;5962;41.566;23.734;2024-02-26T01:15:00;34.70;;;25.33;;
11809;SDS011;5962;41.566;23.734;2024-02-26T01:17:29;31.97;;;24.03;;
11809;SDS011;5962;41.566;23.734;2024-02-26T01:19:57;32.73;;;24.07;;
11809;SDS011;5962;41.566;23.734;2024-02-26T01:22:25;30.20;;;22.43;;
11809;SDS011;5962;41.566;23.734;2024-02-26T01:24:54;24.20;;;17.20;;
11809;SDS011;5962;41.566;23.734;2024-02-26T01:27:23;21.67;;;16.30;;
11809;SDS011;5962;41.566;23.734;2024-02-26T01:29:53;21.57;;;16.57;;
11809;SDS011;5962;41.566;23.734;2024-02-26T01:32:21;28.17;;;22.17;;
11809;SDS011;5962;41.566;23.734;2024-02-26T01:34:49;34.27;;;25.47;;
11809;SDS011;5962;41.566;23.734;2024-02-26T01:37:17;34.50;;;25.43;;
11809;SDS011;5962;41.566;23.734;2024-02-26T01:39:45;26.60;;;17.90;;
11809;SDS011;5962;41.566;23.734;2024-02-26T01:42:14;25.90;;;17.70;;
11809;SDS011;5962;41.566;23.734;2024-02-26T01:44:42;26.77;;;20.87;;
11809;SDS011;5962;41.566;23.734;2024-02-26T01:47:11;23.73;;;17.07;;
11809;SDS011;5962;41.566;23.734;2024-02-26T01:49:40;25.90;;;18.80;;
11809;SDS011;5962;41.566;23.734;2024-02-26T01:52:08;17.03;;;12.90;;
11809;SDS011;5962;41.566;23.734;2024-02-26T01:54:38;19.27;;;14.60;;
11809;SDS011;5962;41.566;23.734;2024-02-26T01:57:08;20.03;;;14.40;;
11809;SDS011;5962;41.566;23.734;2024-02-26T01:59:37;22.93;;;17.90;;
11809;SDS011;5962;41.566;23.734;2024-02-26T02:02:08;31.40;;;22.17;;
11809;SDS011;5962;41.566;23.734;2024-02-26T02:04:38;31.17;;;21.10;;
11809;SDS011;5962;41.566;23.734;2024-02-26T02:07:06;27.97;;;20.60;;
11809;SDS011;5962;41.566;23.734;2024-02-26T02:09:34;30.83;;;20.83;;
11809;SDS011;5962;41.566;23.734;2024-02-26T02:12:02;32.70;;;23.00;;
11809;SDS011;5962;41.566;23.734;2024-02-26T02:14:31;25.77;;;16.83;;
11809;SDS011;5962;41.566;23.734;2024-02-26T02:17:01;56.40;;;22.60;;
11809;SDS011;5962;41.566;23.734;2024-02-26T02:19:29;41.30;;;24.87;;
11809;SDS011;5962;41.566;23.734;2024-02-26T02:21:58;37.63;;;23.93;;
11809;SDS011;5962;41.566;23.734;2024-02-26T02:24:26;36.27;;;24.00;;
11809;SDS011;5962;41.566;23.734;2024-02-26T02:26:54;140.43;;;28.20;;
11809;SDS011;5962;41.566;23.734;2024-02-26T02:29:23;30.80;;;21.13;;
11809;SDS011;5962;41.566;23.734;2024-02-26T02:31:51;26.77;;;20.00;;
11809;SDS011;5962;41.566;23.734;2024-02-26T02:34:19;28.50;;;21.40;;
11809;SDS011;5962;41.566;23.734;2024-02-26T02:36:48;30.27;;;21.60;;
11809;SDS011;5962;41.566;23.734;2024-02-26T02:39:18;31.10;;;22.47;;
11809;SDS011;5962;41.566;23.734;2024-02-26T02:41:47;33.07;;;23.43;;
11809;SDS011;5962;41.566;23.734;2024-02-26T02:44:15;35.43;;;24.67;;
11809;SDS011;5962;41.566;23.734;2024-02-26T02:46:43;36.60;;;22.90;;
11809;SDS011;5962;41.566;23.734;2024-02-26T02:49:11;30.63;;;23.47;;
11809;SDS011;5962;41.566;23.734;2024-02-26T02:51:39;20.90;;;15.50;;
11809;SDS011;5962;41.566;23.734;2024-02-26T02:54:07;23.73;;;18.00;;
11809;SDS011;5962;41.566;23.734;2024-02-26T02:56:36;19.77;;;14.43;;
11809;SDS011;5962;41.566;23.734;2024-02-26T02:59:04;26.53;;;18.37;;
11809;SDS011;5962;41.566;23.734;2024-02-26T03:01:32;24.77;;;18.33;;
11809;SDS011;5962;41.566;23.734;2024-02-26T03:04:00;25.20;;;19.80;;
11809;SDS011;5962;41.566;23.734;2024-02-26T03:06:28;25.00;;;19.67;;
11809;SDS011;5962;41.566;23.734;2024-02-26T03:08:56;27.33;;;20.27;;
11809;SDS011;5962;41.566;23.734;2024-02-26T03:11:24;23.27;;;17.43;;
11809;SDS011;5962;41.566;23.734;2024-02-26T03:13:54;17.77;;;13.50;;
11809;SDS011;5962;41.566;23.734;2024-02-26T03:16:22;18.97;;;13.83;;
11809;SDS011;5962;41.566;23.734;2024-02-26T03:18:50;22.03;;;14.97;;
11809;SDS011;5962;41.566;23.734;2024-02-26T03:21:18;11.07;;;6.90;;
11809;SDS011;5962;41.566;23.734;2024-02-26T03:23:46;15.43;;;12.57;;
11809;SDS011;5962;41.566;23.734;2024-02-26T03:26:14;23.40;;;17.40;;
11809;SDS011;5962;41.566;23.734;2024-02-26T03:28:42;21.77;;;16.97;;
11809;SDS011;5962;41.566;23.734;2024-02-26T03:31:12;13.33;;;11.13;;
11809;SDS011;5962;41.566;23.734;2024-02-26T03:33:40;11.00;;;9.03;;
11809;SDS011;5962;41.566;23.734;2024-02-26T03:36:08;18.87;;;14.03;;
11809;SDS011;5962;41.566;23.734;2024-02-26T03:38:36;11.80;;;8.70;;
11809;SDS011;5962;41.566;23.734;2024-02-26T03:41:05;6.90;;;5.70;;
11809;SDS011;5962;41.566;23.734;2024-02-26T03:43:34;8.87;;;6.50;;
11809;SDS011;5962;41.566;23.734;2024-02-26T03:46:03;8.23;;;7.10;;
11809;SDS011;5962;41.566;23.734;2024-02-26T03:48:32;14.90;;;9.70;;
11809;SDS011;5962;41.566;23.734;2024-02-26T03:51:00;18.80;;;11.77;;
11809;SDS011;5962;41.566;23.734;2024-02-26T03:53:28;7.17;;;5.40;;
11809;SDS011;5962;41.566;23.734;2024-02-26T03:55:56;8.50;;;6.17;;
11809;SDS011;5962;41.566;23.734;2024-02-26T03:58:24;11.73;;;8.60;;
11809;SDS011;5962;41.566;23.734;2024-02-26T04:00:52;17.63;;;12.67;;
11809;SDS011;5962;41.566;23.734;2024-02-26T04:03:20;13.53;;;11.13;;
11809;SDS011;5962;41.566;23.734;2024-02-26T04:05:49;10.37;;;7.30;;
11809;SDS011;5962;41.566;23.734;2024-02-26T04:08:17;9.13;;;6.80;;
11809;SDS011;5962;41.566;23.734;2024-02-26T04:10:45;8.80;;;6.90;;
11809;SDS011;5962;41.566;23.734;2024-02-26T04:13:13;11.10;;;7.13;;
11809;SDS011;5962;41.566;23.734;2024-02-26T04:15:41;10.93;;;7.90;;
11809;SDS011;5962;41.566;23.734;2024-02-26T04:18:09;16.40;;;12.13;;
11809;SDS011;5962;41.566;23.734;2024-02-26T04:20:37;16.80;;;12.50;;
11809;SDS011;5962;41.566;23.734;2024-02-26T04:23:08;30.43;;;21.40;;
11809;SDS011;5962;41.566;23.734;2024-02-26T04:25:36;40.10;;;26.03;;
11809;SDS011;5962;41.566;23.734;2024-02-26T04:28:05;32.70;;;22.33;;
11809;SDS011;5962;41.566;23.734;2024-02-26T04:30:33;28.03;;;22.50;;
11809;SDS011;5962;41.566;23.734;2024-02-26T04:33:01;28.13;;;17.37;;
11809;SDS011;5962;41.566;23.734;2024-02-26T04:35:29;23.07;;;17.43;;
11809;SDS011;5962;41.566;23.734;2024-02-26T04:37:57;45.50;;;27.53;;
11809;SDS011;5962;41.566;23.734;2024-02-26T04:40:27;52.90;;;32.43;;
11809;SDS011;5962;41.566;23.734;2024-02-26T04:42:54;68.70;;;39.00;;
11809;SDS011;5962;41.566;23.734;2024-02-26T04:45:23;62.23;;;35.80;;
11809;SDS011;5962;41.566;23.734;2024-02-26T04:47:51;65.27;;;36.93;;
11809;SDS011;5962;41.566;23.734;2024-02-26T04:50:19;77.20;;;44.50;;
11809;SDS011;5962;41.566;23.734;2024-02-26T04:52:47;69.90;;;40.90;;
11809;SDS011;5962;41.566;23.734;2024-02-26T04:55:15;63.93;;;36.83;;
11809;SDS011;5962;41.566;23.734;2024-02-26T04:57:45;55.57;;;32.87;;
11809;SDS011;5962;41.566;23.734;2024-02-26T05:00:13;49.27;;;28.87;;
11809;SDS011;5962;41.566;23.734;2024-02-26T05:02:42;38.77;;;24.00;;
11809;SDS011;5962;41.566;23.734;2024-02-26T05:05:10;38.23;;;23.40;;
11809;SDS011;5962;41.566;23.734;2024-02-26T05:07:39;35.20;;;22.20;;
11809;SDS011;5962;41.566;23.734;2024-02-26T05:10:08;34.00;;;21.07;;
11809;SDS011;5962;41.566;23.734;2024-02-26T05:12:36;38.60;;;26.23;;
11809;SDS011;5962;41.566;23.734;2024-02-26T05:15:07;40.60;;;23.37;;
11809;SDS011;5962;41.566;23.734;2024-02-26T05:17:35;23.07;;;15.13;;
11809;SDS011;5962;41.566;23.734;2024-02-26T05:20:03;8.80;;;6.13;;
11809;SDS011;5962;41.566;23.734;2024-02-26T05:22:34;8.93;;;6.57;;
11809;SDS011;5962;41.566;23.734;2024-02-26T05:25:02;19.87;;;12.53;;
11809;SDS011;5962;41.566;23.734;2024-02-26T05:27:30;20.87;;;12.87;;
11809;SDS011;5962;41.566;23.734;2024-02-26T05:29:58;28.50;;;17.43;;
11809;SDS011;5962;41.566;23.734;2024-02-26T05:32:28;28.57;;;19.60;;
11809;SDS011;5962;41.566;23.734;2024-02-26T05:34:55;25.73;;;17.90;;
11809;SDS011;5962;41.566;23.734;2024-02-26T05:37:23;20.10;;;14.40;;
11809;SDS011;5962;41.566;23.734;2024-02-26T05:39:51;22.60;;;13.77;;
11809;SDS011;5962;41.566;23.734;2024-02-26T05:42:20;20.00;;;12.67;;
11809;SDS011;5962;41.566;23.734;2024-02-26T05:44:48;25.90;;;18.17;;
11809;SDS011;5962;41.566;23.734;2024-02-26T05:47:16;30.03;;;19.83;;
11809;SDS011;5962;41.566;23.734;2024-02-26T05:49:46;29.23;;;21.80;;
11809;SDS011;5962;41.566;23.734;2024-02-26T05:52:15;39.23;;;26.63;;
11809;SDS011;5962;41.566;23.734;2024-02-26T05:54:43;28.67;;;21.33;;
11809;SDS011;5962;41.566;23.734;2024-02-26T05:57:11;35.20;;;21.13;;
11809;SDS011;5962;41.566;23.734;2024-02-26T05:59:39;32.80;;;15.87;;
11809;SDS011;5962;41.566;23.734;2024-02-26T06:02:07;19.93;;;10.77;;
11809;SDS011;5962;41.566;23.734;2024-02-26T06:04:35;28.67;;;12.00;;
11809;SDS011;5962;41.566;23.734;2024-02-26T06:07:04;15.47;;;10.37;;
11809;SDS011;5962;41.566;23.734;2024-02-26T06:09:33;13.07;;;7.43;;
11809;SDS011;5962;41.566;23.734;2024-02-26T06:12:01;7.43;;;5.73;;
11809;SDS011;5962;41.566;23.734;2024-02-26T06:14:29;7.27;;;4.30;;
11809;SDS011;5962;41.566;23.734;2024-02-26T06:16:57;7.37;;;4.10;;
11809;SDS011;5962;41.566;23.734;2024-02-26T06:19:25;6.63;;;5.13;;
11809;SDS011;5962;41.566;23.734;2024-02-26T06:21:53;6.47;;;4.93;;
11809;SDS011;5962;41.566;23.734;2024-02-26T06:24:23;38.50;;;26.47;;
11809;SDS011;5962;41.566;23.734;2024-02-26T06:26:50;20.50;;;15.73;;
11809;SDS011;5962;41.566;23.734;2024-02-26T06:29:18;17.93;;;13.63;;
11809;SDS011;5962;41.566;23.734;2024-02-26T06:31:47;12.50;;;9.50;;
11809;SDS011;5962;41.566;23.734;2024-02-26T06:34:17;38.10;;;26.20;;
11809;SDS011;5962;41.566;23.734;2024-02-26T06:36:45;24.97;;;16.67;;
11809;SDS011;5962;41.566;23.734;2024-02-26T06:39:13;22.73;;;16.03;;
11809;SDS011;5962;41.566;23.734;2024-02-26T06:41:43;14.73;;;9.90;;
11809;SDS011;5962;41.566;23.734;2024-02-26T06:44:13;40.93;;;24.73;;
11809;SDS011;5962;41.566;23.734;2024-02-26T06:46:41;58.70;;;42.27;;
11809;SDS011;5962;41.566;23.734;2024-02-26T06:49:09;66.20;;;40.30;;
11809;SDS011;5962;41.566;23.734;2024-02-26T06:51:37;47.40;;;31.17;;
11809;SDS011;5962;41.566;23.734;2024-02-26T06:54:05;49.30;;;34.60;;
11809;SDS011;5962;41.566;23.734;2024-02-26T06:56:33;60.73;;;40.83;;
11809;SDS011;5962;41.566;23.734;2024-02-26T06:59:02;61.47;;;41.47;;
11809;SDS011;5962;41.566;23.734;2024-02-26T07:01:30;43.03;;;31.10;;
11809;SDS011;5962;41.566;23.734;2024-02-26T07:03:58;53.37;;;37.73;;
11809;SDS011;5962;41.566;23.734;2024-02-26T07:06:27;43.87;;;29.43;;
11809;SDS011;5962;41.566;23.734;2024-02-26T07:08:55;39.40;;;25.07;;
11809;SDS011;5962;41.566;23.734;2024-02-26T07:11:23;25.10;;;17.80;;
11809;SDS011;5962;41.566;23.734;2024-02-26T07:13:51;50.07;;;35.13;;
11809;SDS011;5962;41.566;23.734;2024-02-26T07:16:20;30.53;;;20.87;;
11809;SDS011;5962;41.566;23.734;2024-02-26T07:18:48;33.30;;;21.80;;
11809;SDS011;5962;41.566;23.734;2024-02-26T07:21:16;37.07;;;26.03;;
11809;SDS011;5962;41.566;23.734;2024-02-26T07:23:44;37.57;;;26.93;;
11809;SDS011;5962;41.566;23.734;2024-02-26T07:26:12;36.10;;;26.40;;
11809;SDS011;5962;41.566;23.734;2024-02-26T07:28:40;41.77;;;27.03;;
11809;SDS011;5962;41.566;23.734;2024-02-26T07:31:08;36.57;;;25.47;;
11809;SDS011;5962;41.566;23.734;2024-02-26T07:33:38;29.47;;;22.30;;
11809;SDS011;5962;41.566;23.734;2024-02-26T07:36:06;33.20;;;24.17;;
11809;SDS011;5962;41.566;23.734;2024-02-26T07:38:34;34.47;;;22.77;;
11809;SDS011;5962;41.566;23.734;2024-02-26T07:41:06;33.97;;;22.33;;
11809;SDS011;5962;41.566;23.734;2024-02-26T07:43:34;36.17;;;26.53;;
11809;SDS011;5962;41.566;23.734;2024-02-26T07:46:02;36.43;;;24.80;;
11809;SDS011;5962;41.566;23.734;2024-02-26T07:48:31;17.90;;;11.77;;
11809;SDS011;5962;41.566;23.734;2024-02-26T07:51:00;19.53;;;13.43;;
11809;SDS011;5962;41.566;23.734;2024-02-26T07:53:29;26.80;;;18.20;;
11809;SDS011;5962;41.566;23.734;2024-02-26T07:55:57;44.83;;;28.93;;
11809;SDS011;5962;41.566;23.734;2024-02-26T07:58:25;54.87;;;32.80;;
11809;SDS011;5962;41.566;23.734;2024-02-26T08:00:53;53.30;;;34.30;;
11809;SDS011;5962;41.566;23.734;2024-02-26T08:03:22;63.70;;;41.13;;
11809;SDS011;5962;41.566;23.734;2024-02-26T08:05:50;57.80;;;35.83;;
11809;SDS011;5962;41.566;23.734;2024-02-26T08:08:20;30.17;;;20.33;;
11809;SDS011;5962;41.566;23.734;2024-02-26T08:10:48;41.97;;;24.93;;
11809;SDS011;5962;41.566;23.734;2024-02-26T08:13:16;47.17;;;30.63;;
11809;SDS011;5962;41.566;23.734;2024-02-26T08:15:44;30.37;;;20.57;;
11809;SDS011;5962;41.566;23.734;2024-02-26T08:18:12;32.87;;;22.03;;
11809;SDS011;5962;41.566;23.734;2024-02-26T08:20:40;24.17;;;16.57;;
11809;SDS011;5962;41.566;23.734;2024-02-26T08:23:08;30.20;;;16.53;;
11809;SDS011;5962;41.566;23.734;2024-02-26T08:25:37;9.33;;;6.40;;
11809;SDS011;5962;41.566;23.734;2024-02-26T08:28:05;12.63;;;6.40;;
11809;SDS011;5962;41.566;23.734;2024-02-26T08:30:33;8.97;;;6.37;;
11809;SDS011;5962;41.566;23.734;2024-02-26T08:33:02;17.33;;;14.30;;
11809;SDS011;5962;41.566;23.734;2024-02-26T08:35:30;17.73;;;14.40;;
11809;SDS011;5962;41.566;23.734;2024-02-26T08:37:58;21.10;;;16.20;;
11809;SDS011;5962;41.566;23.734;2024-02-26T08:40:26;21.30;;;16.17;;
11809;SDS011;5962;41.566;23.734;2024-02-26T08:42:56;22.80;;;17.47;;
11809;SDS011;5962;41.566;23.734;2024-02-26T08:45:24;18.70;;;14.60;;
11809;SDS011;5962;41.566;23.734;2024-02-26T08:47:55;18.97;;;15.93;;
11809;SDS011;5962;41.566;23.734;2024-02-26T08:50:24;24.20;;;17.20;;
11809;SDS011;5962;41.566;23.734;2024-02-26T08:52:53;20.53;;;14.93;;
11809;SDS011;5962;41.566;23.734;2024-02-26T08:55:21;20.47;;;16.87;;
11809;SDS011;5962;41.566;23.734;2024-02-26T08:57:49;22.30;;;16.33;;
11809;SDS011;5962;41.566;23.734;2024-02-26T09:00:18;19.80;;;15.80;;
11809;SDS011;5962;41.566;23.734;2024-02-26T09:02:47;21.50;;;15.57;;
11809;SDS011;5962;41.566;23.734;2024-02-26T09:05:15;18.80;;;13.97;;
11809;SDS011;5962;41.566;23.734;2024-02-26T09:07:43;19.53;;;13.60;;
11809;SDS011;5962;41.566;23.734;2024-02-26T09:10:12;16.50;;;12.23;;
11809;SDS011;5962;41.566;23.734;2024-02-26T09:12:40;17.33;;;12.83;;
11809;SDS011;5962;41.566;23.734;2024-02-26T09:15:09;16.17;;;11.90;;
11809;SDS011;5962;41.566;23.734;2024-02-26T09:17:39;14.37;;;11.17;;
11809;SDS011;5962;41.566;23.734;2024-02-26T09:20:07;16.20;;;12.33;;
11809;SDS011;5962;41.566;23.734;2024-02-26T09:22:36;13.97;;;10.50;;
11809;SDS011;5962;41.566;23.734;2024-02-26T09:25:05;16.53;;;11.70;;
11809;SDS011;5962;41.566;23.734;2024-02-26T09:27:33;13.43;;;10.57;;
11809;SDS011;5962;41.566;23.734;2024-02-26T09:30:03;13.70;;;10.90;;
11809;SDS011;5962;41.566;23.734;2024-02-26T09:32:31;19.87;;;14.40;;
11809;SDS011;5962;41.566;23.734;2024-02-26T09:35:01;20.03;;;15.63;;
11809;SDS011;5962;41.566;23.734;2024-02-26T09:37:31;19.30;;;12.73;;
11809;SDS011;5962;41.566;23.734;2024-02-26T09:39:59;15.40;;;12.20;;
11809;SDS011;5962;41.566;23.734;2024-02-26T09:42:27;16.70;;;14.10;;
11809;SDS011;5962;41.566;23.734;2024-02-26T09:44:59;20.30;;;13.67;;
11809;SDS011;5962;41.566;23.734;2024-02-26T09:47:30;17.97;;;13.57;;
11809;SDS011;5962;41.566;23.734;2024-02-26T09:49:59;16.20;;;13.23;;
11809;SDS011;5962;41.566;23.734;2024-02-26T09:52:30;17.90;;;13.03;;
11809;SDS011;5962;41.566;23.734;2024-02-26T09:55:00;16.00;;;13.23;;
11809;SDS011;5962;41.566;23.734;2024-02-26T09:57:29;15.43;;;12.90;;
11809;SDS011;5962;41.566;23.734;2024-02-26T09:59:59;18.93;;;11.43;;
11809;SDS011;5962;41.566;23.734;2024-02-26T10:02:30;17.37;;;12.80;;
11809;SDS011;5962;41.566;23.734;2024-02-26T10:04:58;13.67;;;11.27;;
11809;SDS011;5962;41.566;23.734;2024-02-26T10:07:31;12.70;;;9.90;;
11809;SDS011;5962;41.566;23.734;2024-02-26T10:10:00;13.73;;;11.00;;
11809;SDS011;5962;41.566;23.734;2024-02-26T10:12:29;13.00;;;10.80;;
11809;SDS011;5962;41.566;23.734;2024-02-26T10:14:57;11.70;;;9.90;;
11809;SDS011;5962;41.566;23.734;2024-02-26T10:17:25;13.47;;;10.13;;
11809;SDS011;5962;41.566;23.734;2024-02-26T10:19:54;12.18;;;9.50;;
11809;SDS011;5962;41.566;23.734;2024-02-26T10:22:38;13.48;;;9.43;;
11809;SDS011;5962;41.566;23.734;2024-02-26T10:25:07;11.90;;;10.27;;
11809;SDS011;5962;41.566;23.734;2024-02-26T10:27:35;13.55;;;10.88;;
11809;SDS011;5962;41.566;23.734;2024-02-26T10:30:04;13.93;;;9.63;;
11809;SDS011;5962;41.566;23.734;2024-02-26T10:32:44;12.90;;;10.07;;
11809;SDS011;5962;41.566;23.734;2024-02-26T10:35:12;13.52;;;10.18;;
11809;SDS011;5962;41.566;23.734;2024-02-26T10:37:42;16.83;;;12.02;;
11809;SDS011;5962;41.566;23.734;2024-02-26T10:40:10;16.65;;;10.27;;
11809;SDS011;5962;41.566;23.734;2024-02-26T10:42:39;13.02;;;10.93;;
11809;SDS011;5962;41.566;23.734;2024-02-26T10:45:07;14.75;;;10.68;;
11809;SDS011;5962;41.566;23.734;2024-02-26T10:47:37;18.90;;;12.02;;
11809;SDS011;5962;41.566;23.734;2024-02-26T10:50:05;13.77;;;10.77;;
11809;SDS011;5962;41.566;23.734;2024-02-26T10:52:34;14.90;;;11.80;;
11809;SDS011;5962;41.566;23.734;2024-02-26T10:55:05;19.05;;;12.23;;
11809;SDS011;5962;41.566;23.734;2024-02-26T10:57:35;12.88;;;10.95;;
11809;SDS011;5962;41.566;23.734;2024-02-26T11:00:09;15.25;;;11.68;;
11809;SDS011;5962;41.566;23.734;2024-02-26T11:02:41;13.23;;;10.77;;
11809;SDS011;5962;41.566;23.734;2024-02-26T11:05:12;14.55;;;11.43;;
11809;SDS011;5962;41.566;23.734;2024-02-26T11:07:41;15.68;;;10.50;;
11809;SDS011;5962;41.566;23.734;2024-02-26T11:10:11;12.38;;;10.73;;
11809;SDS011;5962;41.566;23.734;2024-02-26T11:12:40;13.90;;;10.70;;
11809;SDS011;5962;41.566;23.734;2024-02-26T11:15:09;16.23;;;10.73;;
11809;SDS011;5962;41.566;23.734;2024-02-26T11:17:37;19.90;;;10.63;;
11809;SDS011;5962;41.566;23.734;2024-02-26T11:20:06;16.17;;;11.05;;
11809;SDS011;5962;41.566;23.734;2024-02-26T11:22:39;14.98;;;11.38;;
11809;SDS011;5962;41.566;23.734;2024-02-26T11:25:07;17.23;;;11.40;;
11809;SDS011;5962;41.566;23.734;2024-02-26T11:27:39;16.80;;;11.98;;
11809;SDS011;5962;41.566;23.734;2024-02-26T11:30:12;14.32;;;11.23;;
11809;SDS011;5962;41.566;23.734;2024-02-26T11:32:44;10.27;;;7.90;;
11809;SDS011;5962;41.566;23.734;2024-02-26T11:35:13;9.43;;;6.00;;
11809;SDS011;5962;41.566;23.734;2024-02-26T11:37:51;9.82;;;4.97;;
11809;SDS011;5962;41.566;23.734;2024-02-26T11:40:20;5.65;;;4.47;;
11809;SDS011;5962;41.566;23.734;2024-02-26T11:42:50;10.23;;;4.53;;
11809;SDS011;5962;41.566;23.734;2024-02-26T11:45:47;4.45;;;4.05;;
11809;SDS011;5962;41.566;23.734;2024-02-26T11:48:16;6.85;;;4.53;;
11809;SDS011;5962;41.566;23.734;2024-02-26T11:50:47;5.25;;;3.85;;
11809;SDS011;5962;41.566;23.734;2024-02-26T11:53:23;12.27;;;4.78;;
11809;SDS011;5962;41.566;23.734;2024-02-26T11:58:56;8.35;;;4.85;;
11809;SDS011;5962;41.566;23.734;2024-02-26T12:01:38;9.95;;;4.60;;
11809;SDS011;5962;41.566;23.734;2024-02-26T12:04:07;6.95;;;4.05;;
11809;SDS011;5962;41.566;23.734;2024-02-26T12:06:42;7.43;;;3.45;;
11809;SDS011;5962;41.566;23.734;2024-02-26T12:09:12;4.18;;;3.35;;
11809;SDS011;5962;41.566;23.734;2024-02-26T12:11:41;4.30;;;3.38;;
11809;SDS011;5962;41.566;23.734;2024-02-26T12:14:11;3.35;;;3.05;;
11809;SDS011;5962;41.566;23.734;2024-02-26T12:16:39;7.05;;;3.35;;
11809;SDS011;5962;41.566;23.734;2024-02-26T12:19:09;6.15;;;3.10;;
11809;SDS011;5962;41.566;23.734;2024-02-26T12:21:37;7.28;;;3.17;;
11809;SDS011;5962;41.566;23.734;2024-02-26T12:24:12;9.52;;;3.22;;
11809;SDS011;5962;41.566;23.734;2024-02-26T12:26:42;7.93;;;2.63;;
11809;SDS011;5962;41.566;23.734;2024-02-26T12:29:11;4.28;;;2.60;;
11809;SDS011;5962;41.566;23.734;2024-02-26T12:31:40;4.40;;;2.92;;
11809;SDS011;5962;41.566;23.734;2024-02-26T12:34:09;5.65;;;2.95;;
11809;SDS011;5962;41.566;23.734;2024-02-26T12:36:37;6.85;;;2.92;;
11809;SDS011;5962;41.566;23.734;2024-02-26T12:39:06;4.82;;;2.72;;
11809;SDS011;5962;41.566;23.734;2024-02-26T12:41:35;3.35;;;2.90;;
11809;SDS011;5962;41.566;23.734;2024-02-26T12:44:05;16.60;;;3.75;;
11809;SDS011;5962;41.566;23.734;2024-02-26T12:46:37;7.28;;;2.95;;
11809;SDS011;5962;41.566;23.734;2024-02-26T12:49:05;5.88;;;2.90;;
11809;SDS011;5962;41.566;23.734;2024-02-26T12:51:33;6.35;;;2.85;;
11809;SDS011;5962;41.566;23.734;2024-02-26T12:54:01;3.35;;;2.50;;
11809;SDS011;5962;41.566;23.734;2024-02-26T12:56:30;7.93;;;3.10;;
11809;SDS011;5962;41.566;23.734;2024-02-26T12:58:58;4.38;;;3.00;;
11809;SDS011;5962;41.566;23.734;2024-02-26T13:01:26;5.97;;;2.80;;
11809;SDS011;5962;41.566;23.734;2024-02-26T13:03:58;4.28;;;2.78;;
11809;SDS011;5962;41.566;23.734;2024-02-26T13:06:27;4.05;;;2.28;;
11809;SDS011;5962;41.566;23.734;2024-02-26T13:08:56;3.45;;;2.60;;
11809;SDS011;5962;41.566;23.734;2024-02-26T13:11:25;2.75;;;2.55;;
11809;SDS011;5962;41.566;23.734;2024-02-26T13:13:55;5.47;;;2.88;;
11809;SDS011;5962;41.566;23.734;2024-02-26T13:16:24;6.10;;;2.88;;
11809;SDS011;5962;41.566;23.734;2024-02-26T13:18:52;4.43;;;3.08;;
11809;SDS011;5962;41.566;23.734;2024-02-26T13:21:22;5.93;;;2.67;;
11809;SDS011;5962;41.566;23.734;2024-02-26T13:23:52;3.70;;;2.97;;
11809;SDS011;5962;41.566;23.734;2024-02-26T13:26:21;6.40;;;3.30;;
11809;SDS011;5962;41.566;23.734;2024-02-26T13:28:59;4.80;;;2.95;;
11809;SDS011;5962;41.566;23.734;2024-02-26T13:31:27;4.18;;;2.80;;
11809;SDS011;5962;41.566;23.734;2024-02-26T13:33:55;8.68;;;3.50;;
11809;SDS011;5962;41.566;23.734;2024-02-26T13:36:25;5.72;;;3.50;;
11809;SDS011;5962;41.566;23.734;2024-02-26T13:38:54;5.93;;;2.75;;
11809;SDS011;5962;41.566;23.734;2024-02-26T13:41:22;5.43;;;2.90;;
11809;SDS011;5962;41.566;23.734;2024-02-26T13:43:50;7.45;;;3.17;;
11809;SDS011;5962;41.566;23.734;2024-02-26T13:46:18;4.55;;;2.72;;
11809;SDS011;5962;41.566;23.734;2024-02-26T13:48:46;6.35;;;2.90;;
11809;SDS011;5962;41.566;23.734;2024-02-26T13:51:14;6.68;;;3.22;;
11809;SDS011;5962;41.566;23.734;2024-02-26T13:53:45;7.30;;;3.30;;
11809;SDS011;5962;41.566;23.734;2024-02-26T13:56:13;3.90;;;2.75;;
11809;SDS011;5962;41.566;23.734;2024-02-26T13:58:41;9.63;;;2.85;;
11809;SDS011;5962;41.566;23.734;2024-02-26T14:01:09;10.13;;;2.90;;
11809;SDS011;5962;41.566;23.734;2024-02-26T14:03:37;7.32;;;3.30;;
11809;SDS011;5962;41.566;23.734;2024-02-26T14:06:05;12.90;;;3.53;;
11809;SDS011;5962;41.566;23.734;2024-02-26T14:08:33;7.78;;;3.08;;
11809;SDS011;5962;41.566;23.734;2024-02-26T14:11:02;5.75;;;3.00;;
11809;SDS011;5962;41.566;23.734;2024-02-26T14:13:31;8.13;;;3.10;;
11809;SDS011;5962;41.566;23.734;2024-02-26T14:16:00;6.97;;;2.85;;
11809;SDS011;5962;41.566;23.734;2024-02-26T14:18:28;7.50;;;2.60;;
11809;SDS011;5962;41.566;23.734;2024-02-26T14:20:56;13.18;;;2.90;;
11809;SDS011;5962;41.566;23.734;2024-02-26T14:23:24;6.72;;;2.83;;
11809;SDS011;5962;41.566;23.734;2024-02-26T14:25:52;5.45;;;2.78;;
11809;SDS011;5962;41.566;23.734;2024-02-26T14:28:22;8.82;;;3.05;;
11809;SDS011;5962;41.566;23.734;2024-02-26T14:30:54;18.65;;;3.35;;
11809;SDS011;5962;41.566;23.734;2024-02-26T14:33:22;5.65;;;2.75;;
11809;SDS011;5962;41.566;23.734;2024-02-26T14:35:50;5.72;;;3.00;;
11809;SDS011;5962;41.566;23.734;2024-02-26T14:38:18;6.95;;;2.97;;
11809;SDS011;5962;41.566;23.734;2024-02-26T14:40:46;5.80;;;2.80;;